Aérodrome :
LOGIN :

S'inscrire | Disclaimer

   EN    FR    IT 

 










Légende :    VFR   VFR Marginal   IFR   IFR Intensif   IFR Très Intensif
Visi : 
Plafond : 
>= 8 km
>= 3000ft
5 à 8 km
1000 à 3000 ft
1500m à 5 km
500 à 1000 ft
800 à 1500m
200 à 500 ft
< 800m
< 200 ft
Symboles :   Orages  Brouillard  Fortes neiges  Fortes précipitations  Vent > 20 kt
SIGMETs :   Divers  Orages  Givrage  Turbulence  Onde Orograph.  Cendres Volcan.







- Altitude de l'aérodrome : 10 ft
- Code IATA : AAL


EKYT - Aalborg

DERNIER METAR :
  • 250020Z AUTO 05006KT 9999NDV FEW024/// 14/13 Q1029

METARs EXPIRÉS :
  • 242350Z AUTO 05005KT 9999NDV NCD 14/13 Q1030
  • 242320Z AUTO 03005KT 9000NDV NCD 14/13 Q1030
  • 242250Z AUTO 04005KT 9999NDV NCD 14/13 Q1030
  • 242220Z AUTO 04006KT 9999NDV NCD 14/13 Q1030
  • 242150Z AUTO 04006KT 9999NDV NCD 14/13 Q1030

TAF TAF EKYT
Valide du 25 à 00h jusqu'au 26 à 00h UTC


242313Z 2500/2524 07006KT 9999 FEW020
TEMPO 2500/2507 4000 BR BKN004
TEMPO 2507/2509 BKN012
BECMG 2507/2510 09015KT
BECMG 2516/2518 08008KT
Pas de NOTAMs connus pour ce terrain.



MET'MAP, la Météo Aéronautique d'un coup d'oeil ! - Copyright ORBIFLY Décembre 2007 - Disclaimer

ORBIFLY MET'MAP TEAM :

Programmation & Développement : Alexandra Zaïnal
Conception & Développement : Baudouin d'Aumeries
Co-Programmation & Développement : Marc-Olivier Méhu
Soutien technique & logistique : Manuel Goepfert

Contact : metmap@orbifly.com




SOURCES & CREDITS :

   NOAA